Time;durP1;ratioP1;P1;durP2;ratioP2;P2;SDS_P1;SDS_P2;PMS_P1;PMS_P2;Temp;Humidity;BMP_temperature;BMP_pressure;BME280_temperature;BME280_humidity;BME280_pressure;Samples;Min_cycle;Max_cycle;Signal;HPM_P1;HPM_P2
2023/03/20 00:00:36;;;;;;;;;;;;;;;16.58;52.97;101970.38;2042352;28;19926;-73
2023/03/20 00:01:38;;;;;;;;;;;;;;;16.58;52.87;101981.28;2037978;29;19933;-73
2023/03/20 00:02:41;;;;;;;;;;;;;;;16.58;52.79;101970.38;2039195;29;19934;-72
2023/03/20 00:03:43;;;;;;;;;;;;;;;16.58;52.87;101981.28;2043602;29;19926;-72
2023/03/20 00:04:46;;;;;;;;;;;;;;;16.58;52.96;101973.13;2039804;29;20218;-72
2023/03/20 00:05:49;;;;;;;;;;;;;;;16.58;52.76;101970.38;2045982;28;20395;-72
2023/03/20 00:06:52;;;;;;;;;;;;;;;16.57;52.53;101968.81;2044823;28;19927;-71
2023/03/20 00:07:54;;;;;;;;;;;;;;;16.58;52.55;101970.38;2041285;28;19927;-72
2023/03/20 00:08:57;;;;;;;;;;;;;;;16.57;52.68;101968.81;2044457;28;19930;-72
2023/03/20 00:09:59;;;;;;;;;;;;;;;16.56;52.44;101973.47;2033730;29;19977;-72
2023/03/20 00:11:01;;;;;;;;;;;;;;;16.58;52.92;101970.38;2040978;28;20066;-72
2023/03/20 00:12:04;;;;;;;;;;;;;;;16.58;52.69;101982.09;2054307;28;19981;-71
2023/03/20 00:13:07;;;;;;;;;;;;;;;16.57;52.94;101979.72;2052386;28;19937;-72
2023/03/20 00:14:11;;;;;;;;;;;;;;;16.57;52.88;101990.63;2050378;28;20012;-72
2023/03/20 00:15:22;;;;;;;;;;;;;;;16.57;52.91;101987.91;2048002;28;19980;-72
2023/03/20 00:16:29;;;;;;;;;;;;;;;16.56;52.61;101984.38;2045329;28;19922;-72
2023/03/20 00:17:31;;;;;;;;;;;;;;;16.57;52.85;101982.44;2046362;28;20343;-72
2023/03/20 00:18:34;;;;;;;;;;;;;;;16.56;52.75;101984.38;2053074;28;19933;-72
2023/03/20 00:19:36;;;;;;;;;;;;;;;16.56;52.56;101991.75;2049360;28;20013;-72
2023/03/20 00:20:39;;;;;;;;;;;;;;;16.57;52.69;102002.31;2050788;28;19925;-72
2023/03/20 00:21:41;;;;;;;;;;;;;;;16.56;52.37;101997.22;2050837;28;20061;-72
2023/03/20 00:22:43;;;;;;;;;;;;;;;16.56;52.59;101994.47;2049213;28;19967;-73
2023/03/20 00:23:46;;;;;;;;;;;;;;;16.56;52.48;101989.81;2041376;29;20443;-72
2023/03/20 00:24:49;;;;;;;;;;;;;;;16.56;52.88;101999.94;2046637;28;20437;-72
2023/03/20 00:25:51;;;;;;;;;;;;;;;16.56;52.37;101987.09;2048866;28;19933;-72
2023/03/20 00:26:54;;;;;;;;;;;;;;;16.56;52.83;101983.56;2043437;29;20348;-72
2023/03/20 00:27:56;;;;;;;;;;;;;;;16.56;52.87;101989.81;2035385;28;19966;-73
2023/03/20 00:28:59;;;;;;;;;;;;;;;16.55;52.57;101988.25;2040039;28;20001;-72
2023/03/20 00:30:01;;;;;;;;;;;;;;;16.55;52.92;101985.53;2047576;28;19926;-72
2023/03/20 00:31:06;;;;;;;;;;;;;;;16.54;52.50;101986.66;2041154;29;19926;-72
2023/03/20 00:32:10;;;;;;;;;;;;;;;16.56;52.77;101994.47;2045343;28;20529;-72
2023/03/20 00:33:13;;;;;;;;;;;;;;;16.55;52.86;101982.81;2043824;29;19927;-73
2023/03/20 00:34:16;;;;;;;;;;;;;;;16.56;52.59;101991.75;2055637;28;20505;-72
2023/03/20 00:35:22;;;;;;;;;;;;;;;16.55;52.80;101987.44;2046923;29;20324;-72
2023/03/20 00:36:24;;;;;;;;;;;;;;;16.54;52.53;101994.84;2039173;29;19930;-73
2023/03/20 00:37:27;;;;;;;;;;;;;;;16.55;52.80;101993.72;2039456;29;20471;-72
2023/03/20 00:38:31;;;;;;;;;;;;;;;16.55;52.81;101998.34;2043193;29;19926;-72
2023/03/20 00:39:34;;;;;;;;;;;;;;;16.56;52.74;101989.03;2036535;29;20348;-73
2023/03/20 00:40:36;;;;;;;;;;;;;;;16.55;52.72;101998.34;2041139;28;19923;-72
2023/03/20 00:41:41;;;;;;;;;;;;;;;16.55;52.63;101992.91;2039214;29;19927;-72
2023/03/20 00:42:45;;;;;;;;;;;;;;;16.55;52.72;101995.63;2027732;29;20370;-73
2023/03/20 00:43:51;;;;;;;;;;;;;;;16.55;52.60;101998.34;2041443;28;20305;-73
2023/03/20 00:44:54;;;;;;;;;;;;;;;16.55;52.70;101998.34;2045954;28;19933;-72
2023/03/20 00:46:00;;;;;;;;;;;;;;;16.55;52.36;102001.09;2040030;28;19930;-72
2023/03/20 00:47:05;;;;;;;;;;;;;;;16.54;52.69;101996.78;2036694;29;19938;-73
2023/03/20 00:48:11;;;;;;;;;;;;;;;16.54;52.75;101999.50;2043625;28;19926;-72
2023/03/20 00:49:12;;;;;;;;;;;;;;;16.54;52.49;102002.25;2054559;28;20284;-72
2023/03/20 00:50:17;;;;;;;;;;;;;;;16.54;52.62;101996.78;2053853;28;19965;-73
2023/03/20 00:51:20;;;;;;;;;;;;;;;16.53;52.67;102004.16;2045002;29;19977;-72
2023/03/20 00:52:22;;;;;;;;;;;;;;;16.54;52.58;101996.78;2041269;29;20468;-72
2023/03/20 00:53:26;;;;;;;;;;;;;;;16.53;52.53;102008.81;2032566;29;19990;-72
2023/03/20 00:54:28;;;;;;;;;;;;;;;16.53;52.04;102006.91;2035210;28;19937;-73
2023/03/20 00:55:31;;;;;;;;;;;;;;;16.54;52.57;102002.25;2047868;28;19923;-73
2023/03/20 00:56:34;;;;;;;;;;;;;;;16.54;52.73;102002.25;2054985;28;20303;-72
2023/03/20 00:57:40;;;;;;;;;;;;;;;16.54;52.67;102002.25;2051171;28;20420;-71
2023/03/20 00:58:41;;;;;;;;;;;;;;;16.54;51.98;101996.78;2052286;28;19932;-71
2023/03/20 00:59:51;;;;;;;;;;;;;;;16.53;52.47;102000.63;2049002;28;19926;-71
2023/03/20 01:00:53;;;;;;;;;;;;;;;16.54;52.75;102002.25;2046562;28;19934;-71
2023/03/20 01:01:55;;;;;;;;;;;;;;;16.53;52.66;101998.72;2040155;28;20389;-71
2023/03/20 01:03:00;;;;;;;;;;;;;;;16.53;52.80;101995.19;2035207;29;19985;-71
2023/03/20 01:04:02;;;;;;;;;;;;;;;16.53;52.41;101995.19;2038792;28;20417;-71
2023/03/20 01:05:05;;;;;;;;;;;;;;;16.53;52.89;102000.63;2048414;28;20005;-72
2023/03/20 01:06:08;;;;;;;;;;;;;;;16.52;52.46;101999.06;2056826;28;19926;-71
2023/03/20 01:07:14;;;;;;;;;;;;;;;16.53;52.73;101998.72;2050156;28;20005;-72
2023/03/20 01:08:17;;;;;;;;;;;;;;;16.53;52.69;101997.91;2048661;28;19926;-72
2023/03/20 01:09:19;;;;;;;;;;;;;;;16.53;52.58;102001.44;2043777;29;19926;-71
2023/03/20 01:10:32;;;;;;;;;;;;;;;16.53;52.58;102000.63;2045064;28;20327;-71
2023/03/20 01:11:34;;;;;;;;;;;;;;;16.53;52.67;102000.63;2047061;29;19930;-72
2023/03/20 01:12:37;;;;;;;;;;;;;;;16.53;52.60;101995.19;2046639;28;19992;-71
2023/03/20 01:13:41;;;;;;;;;;;;;;;16.53;52.47;101998.72;2043499;28;20390;-71
2023/03/20 01:14:44;;;;;;;;;;;;;;;16.52;52.61;101988.16;2048453;28;19972;-71
2023/03/20 01:15:47;;;;;;;;;;;;;;;16.52;52.40;101985.44;2043705;28;19930;-70
2023/03/20 01:16:49;;;;;;;;;;;;;;;16.51;52.62;101975.69;2046225;28;19931;-71
2023/03/20 01:17:51;;;;;;;;;;;;;;;16.53;52.63;101976.09;2041735;29;19926;-73
2023/03/20 01:18:56;;;;;;;;;;;;;;;16.52;52.63;101974.53;2038694;29;20395;-69
2023/03/20 01:19:58;;;;;;;;;;;;;;;16.52;52.43;101988.16;2041150;28;20037;-69
2023/03/20 01:21:01;;;;;;;;;;;;;;;16.52;52.40;101986.25;2054113;28;19926;-68
2023/03/20 01:22:03;;;;;;;;;;;;;;;16.52;52.44;101990.88;2051673;28;20423;-68
2023/03/20 01:23:06;;;;;;;;;;;;;;;16.53;52.71;101995.19;2047575;28;19926;-69
2023/03/20 01:24:07;;;;;;;;;;;;;;;16.53;52.47;101995.19;2054443;28;19933;-68
2023/03/20 01:25:11;;;;;;;;;;;;;;;16.52;52.47;101994.41;2047301;28;19930;-69
2023/03/20 01:26:23;;;;;;;;;;;;;;;16.52;52.80;101988.16;2049133;28;19933;-68
2023/03/20 01:27:26;;;;;;;;;;;;;;;16.52;52.75;101991.69;2040888;29;20540;-68
2023/03/20 01:28:30;;;;;;;;;;;;;;;16.52;52.62;101985.44;2044316;28;20021;-69
2023/03/20 01:29:31;;;;;;;;;;;;;;;16.52;52.42;101990.88;2051445;28;20413;-68
2023/03/20 01:30:34;;;;;;;;;;;;;;;16.52;52.65;101988.97;2054363;28;20526;-68
2023/03/20 01:31:36;;;;;;;;;;;;;;;16.52;52.45;101985.44;2053162;28;19980;-69
2023/03/20 01:32:39;;;;;;;;;;;;;;;16.51;52.44;101979.19;2044600;28;20451;-69
2023/03/20 01:33:41;;;;;;;;;;;;;;;16.52;52.57;101975.34;2037602;29;19934;-68
2023/03/20 01:34:46;;;;;;;;;;;;;;;16.52;52.44;101966.34;2044102;28;19927;-69
2023/03/20 01:35:48;;;;;;;;;;;;;;;16.52;52.42;101960.91;2047357;28;19984;-68
2023/03/20 01:36:53;;;;;;;;;;;;;;;16.51;52.43;101972.97;2055420;28;20441;-69
2023/03/20 01:37:55;;;;;;;;;;;;;;;16.52;52.50;101961.69;2049134;28;19926;-69
2023/03/20 01:38:58;;;;;;;;;;;;;;;16.53;52.71;101967.91;2040743;29;19942;-69
2023/03/20 01:40:00;;;;;;;;;;;;;;;16.51;52.55;101973.72;2044574;28;19923;-69
2023/03/20 01:41:07;;;;;;;;;;;;;;;16.52;52.63;101971.81;2041261;29;19934;-69
2023/03/20 01:42:13;;;;;;;;;;;;;;;16.52;52.63;101979.97;2039267;28;19931;-69
2023/03/20 01:43:19;;;;;;;;;;;;;;;16.52;52.67;101978.06;2028890;29;20385;-69
2023/03/20 01:44:24;;;;;;;;;;;;;;;16.51;52.46;101973.72;2032048;29;20273;-69
2023/03/20 01:45:32;;;;;;;;;;;;;;;16.52;52.76;101977.25;2046229;28;20105;-69
2023/03/20 01:46:35;;;;;;;;;;;;;;;16.52;52.41;101977.25;2037234;29;19926;-69
2023/03/20 01:47:47;;;;;;;;;;;;;;;16.52;52.67;101971.81;2040613;28;19926;-69
2023/03/20 01:48:59;;;;;;;;;;;;;;;16.52;52.34;101960.91;2036742;29;19934;-69
2023/03/20 01:50:32;;;;;;;;;;;;;;;16.51;52.64;101960.09;2030675;28;20436;-69
2023/03/20 01:51:42;;;;;;;;;;;;;;;16.52;52.61;101956.25;2042998;29;19926;-68
2023/03/20 01:52:48;;;;;;;;;;;;;;;16.52;52.70;101963.63;2036587;29;19927;-69
2023/03/20 01:53:51;;;;;;;;;;;;;;;16.52;52.60;101955.44;2045975;28;20404;-70
2023/03/20 01:54:54;;;;;;;;;;;;;;;16.52;52.45;101958.19;2041688;28;20006;-69
2023/03/20 01:55:57;;;;;;;;;;;;;;;16.51;52.71;101954.66;2029378;29;20377;-69
2023/03/20 01:57:07;;;;;;;;;;;;;;;16.51;52.53;101954.66;2030334;29;20460;-69
2023/03/20 01:58:13;;;;;;;;;;;;;;;16.52;52.78;101950.00;2045370;28;20465;-69
2023/03/20 01:59:18;;;;;;;;;;;;;;;16.52;52.55;101952.72;2039743;29;20116;-69
2023/03/20 02:00:20;;;;;;;;;;;;;;;16.52;52.45;101952.72;2030836;29;20277;-68
2023/03/20 02:01:24;;;;;;;;;;;;;;;16.52;52.74;101944.53;2023490;29;20659;-69
2023/03/20 02:02:29;;;;;;;;;;;;;;;16.51;52.67;101940.25;2036012;28;19927;-68
2023/03/20 02:03:32;;;;;;;;;;;;;;;16.51;52.56;101934.78;2053270;28;20394;-69
2023/03/20 02:04:57;;;;;;;;;;;;;;;16.52;52.72;101933.63;2040879;29;19970;-69
2023/03/20 02:06:00;;;;;;;;;;;;;;;16.51;52.42;101927.38;2026728;29;20055;-68
2023/03/20 02:07:23;;;;;;;;;;;;;;;16.52;52.75;101930.91;2036945;29;19927;-69
2023/03/20 02:08:36;;;;;;;;;;;;;;;16.51;52.65;101932.84;2035109;29;19923;-69
2023/03/20 02:09:38;;;;;;;;;;;;;;;16.51;52.56;101935.56;2035890;29;19977;-68
2023/03/20 02:10:46;;;;;;;;;;;;;;;16.51;52.61;101938.28;2036813;28;19981;-69
2023/03/20 02:11:58;;;;;;;;;;;;;;;16.52;52.71;101939.09;2039101;28;19931;-69
2023/03/20 02:13:03;;;;;;;;;;;;;;;16.51;52.90;101937.50;2035551;29;19930;-68
2023/03/20 02:14:12;;;;;;;;;;;;;;;16.51;52.85;101937.50;2044114;28;19926;-69
2023/03/20 02:15:26;;;;;;;;;;;;;;;16.51;52.86;101930.09;2037273;29;20151;-69
2023/03/20 02:16:41;;;;;;;;;;;;;;;16.51;52.83;101927.38;2038536;28;20005;-69
2023/03/20 02:17:50;;;;;;;;;;;;;;;16.52;52.85;101936.38;2045561;29;19937;-69
2023/03/20 02:18:55;;;;;;;;;;;;;;;16.51;52.52;101927.38;2038432;28;19990;-71
2023/03/20 02:20:03;;;;;;;;;;;;;;;16.47;52.89;101920.28;2030184;29;19927;-68
2023/03/20 02:21:24;;;;;;;;;;;;;;;16.52;52.63;101926.25;2035464;28;20341;-69
2023/03/20 02:22:40;;;;;;;;;;;;;;;16.52;52.75;101928.97;2042675;28;19927;-69
2023/03/20 02:23:57;;;;;;;;;;;;;;;16.52;52.75;101918.09;2036504;29;20183;-69
2023/03/20 02:25:23;;;;;;;;;;;;;;;16.52;52.65;101920.00;2045556;29;19957;-67
2023/03/20 02:26:31;;;;;;;;;;;;;;;16.48;52.75;101911.72;2045013;28;19926;-69
2023/03/20 02:27:38;;;;;;;;;;;;;;;16.52;52.60;101917.28;2040636;28;20324;-69
2023/03/20 02:28:55;;;;;;;;;;;;;;;16.53;52.85;101918.84;2043789;28;20459;-69
2023/03/20 02:30:10;;;;;;;;;;;;;;;16.52;52.78;101914.56;2042053;28;19922;-74
2023/03/20 02:31:28;;;;;;;;;;;;;;;16.51;52.58;101911.03;2037582;29;20017;-73
2023/03/20 02:32:50;;;;;;;;;;;;;;;16.51;52.81;101905.56;2039955;29;19990;-73
2023/03/20 02:34:06;;;;;;;;;;;;;;;16.52;52.92;101909.09;2040425;29;19949;-73
2023/03/20 02:35:17;;;;;;;;;;;;;;;16.52;52.85;101915.34;2046744;28;19933;-73
2023/03/20 02:36:42;;;;;;;;;;;;;;;16.52;52.65;101911.81;2041507;28;19934;-73
2023/03/20 02:37:52;;;;;;;;;;;;;;;16.51;52.55;101910.25;2041932;28;20443;-73
2023/03/20 02:39:01;;;;;;;;;;;;;;;16.52;52.62;101917.28;2049967;28;19922;-72
2023/03/20 02:40:12;;;;;;;;;;;;;;;16.52;52.64;101911.81;2043961;28;19922;-72
2023/03/20 02:41:19;;;;;;;;;;;;;;;16.52;52.76;101909.09;2042008;29;19922;-73
2023/03/20 02:42:27;;;;;;;;;;;;;;;16.51;52.66;101913.75;2042850;28;19930;-73
2023/03/20 02:43:36;;;;;;;;;;;;;;;16.51;52.65;101904.81;2039079;29;19998;-72
2023/03/20 02:44:45;;;;;;;;;;;;;;;16.51;52.74;101902.84;2041582;28;19930;-72
2023/03/20 02:45:51;;;;;;;;;;;;;;;16.52;52.66;101900.91;2032289;29;20512;-73
2023/03/20 02:47:00;;;;;;;;;;;;;;;16.51;52.81;101896.63;2034173;29;19955;-72
2023/03/20 02:48:09;;;;;;;;;;;;;;;16.51;52.84;101893.91;2043672;28;20041;-73
2023/03/20 02:49:18;;;;;;;;;;;;;;;16.51;52.66;101900.13;2039494;29;19953;-73
2023/03/20 02:50:26;;;;;;;;;;;;;;;16.51;52.76;101899.34;2031528;29;20433;-73
2023/03/20 02:51:33;;;;;;;;;;;;;;;16.52;52.67;101898.19;2046040;28;19926;-73
2023/03/20 02:52:42;;;;;;;;;;;;;;;16.52;52.82;101884.56;2050969;28;20038;-72
2023/03/20 02:53:51;;;;;;;;;;;;;;;16.51;53.07;101886.50;2046513;28;20022;-72
2023/03/20 02:55:01;;;;;;;;;;;;;;;16.52;52.75;101892.75;2041216;29;20096;-73
2023/03/20 02:56:10;;;;;;;;;;;;;;;16.52;52.72;101890.81;2042875;28;19991;-72
2023/03/20 02:57:16;;;;;;;;;;;;;;;16.52;52.90;101890.03;2047216;28;20359;-72
2023/03/20 02:58:22;;;;;;;;;;;;;;;16.51;52.75;101897.41;2044684;28;20408;-72
2023/03/20 02:59:29;;;;;;;;;;;;;;;16.52;52.93;101890.03;2043979;28;19927;-73
2023/03/20 03:00:35;;;;;;;;;;;;;;;16.51;52.71;101888.44;2044661;28;20438;-73
2023/03/20 03:01:41;;;;;;;;;;;;;;;16.51;52.87;101889.22;2035293;29;19926;-72
2023/03/20 03:02:47;;;;;;;;;;;;;;;16.52;52.76;101884.56;2040687;29;19927;-73
2023/03/20 03:03:52;;;;;;;;;;;;;;;16.52;52.90;101884.56;2047276;28;20364;-72
2023/03/20 03:04:58;;;;;;;;;;;;;;;16.51;53.00;101872.09;2039340;29;19926;-72
2023/03/20 03:06:02;;;;;;;;;;;;;;;16.51;52.70;101874.81;2040730;28;19934;-72
2023/03/20 03:07:07;;;;;;;;;;;;;;;16.51;52.75;101877.53;2048423;28;19926;-72
2023/03/20 03:08:12;;;;;;;;;;;;;;;16.51;52.98;101877.53;2060185;28;19988;-72
2023/03/20 03:09:18;;;;;;;;;;;;;;;16.52;52.97;101879.13;2046666;28;19937;-72
2023/03/20 03:10:22;;;;;;;;;;;;;;;16.51;52.75;101878.31;2053645;28;19948;-73
2023/03/20 03:11:25;;;;;;;;;;;;;;;16.50;52.88;101868.56;2055716;28;19932;-72
2023/03/20 03:12:30;;;;;;;;;;;;;;;16.50;52.77;101865.03;2050082;28;19926;-72
2023/03/20 03:13:36;;;;;;;;;;;;;;;16.51;52.73;101866.63;2051235;28;19925;-68
2023/03/20 03:14:40;;;;;;;;;;;;;;;16.51;52.66;101867.41;2047444;28;19941;-68
2023/03/20 03:15:50;;;;;;;;;;;;;;;16.51;52.69;101863.91;2038656;29;19965;-68
2023/03/20 03:16:53;;;;;;;;;;;;;;;16.51;52.74;101861.19;2044356;28;19926;-68
2023/03/20 03:17:58;;;;;;;;;;;;;;;16.51;52.67;101861.94;2043708;28;19926;-68
2023/03/20 03:19:05;;;;;;;;;;;;;;;16.51;52.67;101861.94;2042272;28;19933;-67
2023/03/20 03:20:14;;;;;;;;;;;;;;;16.52;52.93;101860.03;2038709;28;20519;-68
2023/03/20 03:21:17;;;;;;;;;;;;;;;16.51;52.67;101855.72;2037513;29;19933;-68
2023/03/20 03:22:20;;;;;;;;;;;;;;;16.52;52.71;101860.03;2046495;28;20008;-68
2023/03/20 03:23:27;;;;;;;;;;;;;;;16.51;52.87;101863.91;2047771;28;19926;-68
2023/03/20 03:24:32;;;;;;;;;;;;;;;16.51;52.70;101866.63;2046891;28;20459;-68
2023/03/20 03:25:44;;;;;;;;;;;;;;;16.52;53.05;101857.31;2043664;29;20030;-68
2023/03/20 03:26:46;;;;;;;;;;;;;;;16.51;52.77;101861.19;2049213;28;19933;-68
2023/03/20 03:27:53;;;;;;;;;;;;;;;16.52;53.04;101865.47;2054064;28;20066;-68
2023/03/20 03:28:58;;;;;;;;;;;;;;;16.52;53.11;101862.75;2046351;28;19962;-69
2023/03/20 03:30:03;;;;;;;;;;;;;;;16.51;52.98;101853.00;2045995;28;20415;-69
2023/03/20 03:31:06;;;;;;;;;;;;;;;16.51;52.93;101850.28;2044976;28;20373;-69
2023/03/20 03:32:20;;;;;;;;;;;;;;;16.51;52.98;101851.06;2044966;28;20489;-73
2023/03/20 03:33:24;;;;;;;;;;;;;;;16.51;53.01;101850.28;2036920;29;20454;-73
2023/03/20 03:34:27;;;;;;;;;;;;;;;16.51;52.65;101847.56;2045630;28;20443;-73
2023/03/20 03:35:30;;;;;;;;;;;;;;;16.51;52.77;101839.38;2041575;29;20443;-73
2023/03/20 03:36:38;;;;;;;;;;;;;;;16.51;53.01;101847.56;2042586;28;20384;-73
2023/03/20 03:37:43;;;;;;;;;;;;;;;16.50;52.96;101840.50;2037919;29;19972;-73
2023/03/20 03:38:50;;;;;;;;;;;;;;;16.51;52.71;101844.81;2031339;29;20014;-74
2023/03/20 03:39:58;;;;;;;;;;;;;;;16.51;52.74;101844.81;2046157;28;19980;-73
2023/03/20 03:41:14;;;;;;;;;;;;;;;16.52;52.90;101840.94;2048201;28;19973;-73
2023/03/20 03:42:20;;;;;;;;;;;;;;;16.52;52.75;101840.94;2037431;29;20359;-73
2023/03/20 03:43:28;;;;;;;;;;;;;;;16.50;52.86;101841.31;2034928;29;20735;-73
2023/03/20 03:44:33;;;;;;;;;;;;;;;16.50;52.74;101837.78;2038604;29;19966;-73
2023/03/20 03:45:38;;;;;;;;;;;;;;;16.51;52.67;101844.81;2036636;29;19926;-73
2023/03/20 03:46:43;;;;;;;;;;;;;;;16.51;52.75;101840.16;2050750;28;20296;-72
2023/03/20 03:47:51;;;;;;;;;;;;;;;16.51;52.65;101844.81;2037178;29;19985;-68
2023/03/20 03:48:55;;;;;;;;;;;;;;;16.52;53.03;101846.41;2039016;28;20440;-68
2023/03/20 03:50:00;;;;;;;;;;;;;;;16.51;52.70;101833.91;2048398;28;19931;-69
2023/03/20 03:51:06;;;;;;;;;;;;;;;16.51;52.70;101828.47;2039701;28;19973;-68
2023/03/20 03:52:16;;;;;;;;;;;;;;;16.51;52.93;101833.91;2046988;28;19930;-69
2023/03/20 03:53:21;;;;;;;;;;;;;;;16.50;52.62;101833.13;2052174;28;20222;-69
2023/03/20 03:54:26;;;;;;;;;;;;;;;16.51;52.63;101825.75;2054183;28;19969;-68
2023/03/20 03:55:50;;;;;;;;;;;;;;;16.51;52.64;101828.47;2051541;28;20396;-68
2023/03/20 03:56:53;;;;;;;;;;;;;;;16.50;52.91;101826.88;2038938;29;20507;-68
2023/03/20 03:57:58;;;;;;;;;;;;;;;16.51;52.83;101823.03;2038522;28;20038;-69
2023/03/20 03:59:03;;;;;;;;;;;;;;;16.50;52.75;101830.41;2047813;28;19926;-68
2023/03/20 04:00:07;;;;;;;;;;;;;;;16.50;52.67;101826.88;2043247;28;19922;-69
2023/03/20 04:01:16;;;;;;;;;;;;;;;16.50;52.60;101826.88;2037423;28;19933;-69
2023/03/20 04:02:20;;;;;;;;;;;;;;;16.49;52.79;101823.34;2033702;29;20457;-68
2023/03/20 04:03:24;;;;;;;;;;;;;;;16.51;52.93;101820.28;2035375;29;20393;-69
2023/03/20 04:04:28;;;;;;;;;;;;;;;16.51;53.07;101823.03;2047352;28;19978;-68
2023/03/20 04:05:31;;;;;;;;;;;;;;;16.51;52.80;101820.28;2049919;28;19969;-69
2023/03/20 04:06:35;;;;;;;;;;;;;;;16.50;52.60;101818.69;2045172;28;19922;-72
2023/03/20 04:07:37;;;;;;;;;;;;;;;16.51;52.55;101812.13;2045558;29;19957;-72
2023/03/20 04:08:40;;;;;;;;;;;;;;;16.49;52.71;101812.44;2052540;28;19969;-72
2023/03/20 04:09:42;;;;;;;;;;;;;;;16.50;52.84;101807.78;2045906;29;19930;-72
2023/03/20 04:10:45;;;;;;;;;;;;;;;16.50;52.63;101813.25;2045427;28;19926;-73
2023/03/20 04:11:49;;;;;;;;;;;;;;;16.50;52.84;101810.50;2043958;29;20009;-72
2023/03/20 04:12:53;;;;;;;;;;;;;;;16.51;52.66;101814.84;2041531;29;20365;-69
2023/03/20 04:13:55;;;;;;;;;;;;;;;16.50;52.64;101815.97;2037472;29;20443;-69
2023/03/20 04:14:58;;;;;;;;;;;;;;;16.50;52.82;101816.75;2043368;29;19926;-69
2023/03/20 04:16:03;;;;;;;;;;;;;;;16.50;52.75;101816.75;2043836;28;20075;-69
2023/03/20 04:17:06;;;;;;;;;;;;;;;16.50;53.11;101818.69;2045044;29;19993;-69
2023/03/20 04:18:08;;;;;;;;;;;;;;;16.50;52.83;101821.41;2054815;28;19925;-69
2023/03/20 04:19:13;;;;;;;;;;;;;;;16.51;52.62;101814.84;2037651;29;19931;-69
2023/03/20 04:20:18;;;;;;;;;;;;;;;16.50;52.75;101810.50;2024924;29;19934;-69
2023/03/20 04:21:22;;;;;;;;;;;;;;;16.51;52.85;101818.34;2037109;29;19922;-69
2023/03/20 04:22:25;;;;;;;;;;;;;;;16.50;52.87;101813.25;2042434;28;19998;-69
2023/03/20 04:23:29;;;;;;;;;;;;;;;16.50;52.65;101810.50;2040500;28;19926;-68
2023/03/20 04:24:31;;;;;;;;;;;;;;;16.51;52.57;101812.13;2043362;28;19954;-69
2023/03/20 04:25:34;;;;;;;;;;;;;;;16.51;52.97;101809.38;2039582;29;19934;-69
2023/03/20 04:26:36;;;;;;;;;;;;;;;16.51;52.61;101812.13;2047644;28;19929;-69
2023/03/20 04:27:40;;;;;;;;;;;;;;;16.51;52.63;101806.66;2046108;29;19930;-69
2023/03/20 04:28:50;;;;;;;;;;;;;;;16.50;52.75;101811.31;2048269;28;19934;-69
2023/03/20 04:30:12;;;;;;;;;;;;;;;16.51;52.80;101812.13;2049299;28;20084;-74
2023/03/20 04:31:34;;;;;;;;;;;;;;;16.51;52.50;101806.66;2050843;28;19969;-73
2023/03/20 04:32:50;;;;;;;;;;;;;;;16.50;52.58;101805.88;2047302;28;19926;-73
2023/03/20 04:34:00;;;;;;;;;;;;;;;16.50;52.41;101805.88;2037357;28;20029;-69
2023/03/20 04:35:16;;;;;;;;;;;;;;;16.50;52.65;101803.13;2043718;28;19922;-69
2023/03/20 04:36:32;;;;;;;;;;;;;;;16.50;52.85;101805.88;2045317;28;19922;-69
2023/03/20 04:37:36;;;;;;;;;;;;;;;16.51;52.75;101803.94;2033906;29;20389;-69
2023/03/20 04:38:41;;;;;;;;;;;;;;;16.51;52.41;101809.38;2033976;29;19927;-69
2023/03/20 04:39:43;;;;;;;;;;;;;;;16.50;52.54;101805.88;2037050;29;20054;-69
2023/03/20 04:40:47;;;;;;;;;;;;;;;16.51;52.55;101812.13;2038429;29;19927;-69
2023/03/20 04:41:49;;;;;;;;;;;;;;;16.51;52.79;101812.13;2039141;29;19927;-69
2023/03/20 04:42:53;;;;;;;;;;;;;;;16.50;52.74;101802.34;2037776;29;19923;-69
2023/03/20 04:43:55;;;;;;;;;;;;;;;16.50;52.46;101799.63;2036873;28;19927;-69
2023/03/20 04:44:59;;;;;;;;;;;;;;;16.51;52.80;101803.94;2034839;29;19938;-68
2023/03/20 04:46:03;;;;;;;;;;;;;;;16.51;52.83;101806.66;2037094;29;20022;-68
2023/03/20 04:47:06;;;;;;;;;;;;;;;16.51;52.56;101810.16;2039340;29;19926;-69
2023/03/20 04:48:12;;;;;;;;;;;;;;;16.51;52.47;101812.13;2047986;28;19926;-69
2023/03/20 04:49:15;;;;;;;;;;;;;;;16.51;52.76;101814.84;2043546;29;19934;-69
2023/03/20 04:50:17;;;;;;;;;;;;;;;16.50;52.53;101816.75;2037880;29;20016;-69
2023/03/20 04:51:20;;;;;;;;;;;;;;;16.50;52.54;101819.50;2044551;29;20508;-68
2023/03/20 04:52:24;;;;;;;;;;;;;;;16.51;52.72;101814.84;2052486;28;19926;-67
2023/03/20 04:53:27;;;;;;;;;;;;;;;16.50;52.58;101822.22;2043063;29;20381;-68
2023/03/20 04:54:29;;;;;;;;;;;;;;;16.51;52.55;101817.56;2033719;29;19933;-67
2023/03/20 04:55:31;;;;;;;;;;;;;;;16.51;52.49;101817.56;2043942;29;19966;-67
2023/03/20 04:56:33;;;;;;;;;;;;;;;16.51;52.64;101817.56;2046907;28;19930;-68
2023/03/20 04:57:47;;;;;;;;;;;;;;;16.50;52.49;101814.03;2038379;29;19923;-68
2023/03/20 04:58:50;;;;;;;;;;;;;;;16.51;52.42;101817.56;2035736;29;19927;-68
2023/03/20 04:59:55;;;;;;;;;;;;;;;16.51;52.53;101815.59;2028303;29;20175;-68
2023/03/20 05:00:57;;;;;;;;;;;;;;;16.50;52.48;101818.69;2032404;29;19934;-67
2023/03/20 05:02:00;;;;;;;;;;;;;;;16.50;52.63;101821.41;2037084;29;19926;-67
2023/03/20 05:03:01;;;;;;;;;;;;;;;16.50;52.71;101824.16;2044142;28;20410;-67
2023/03/20 05:04:04;;;;;;;;;;;;;;;16.51;52.65;101825.75;2051187;28;20024;-68
2023/03/20 05:05:08;;;;;;;;;;;;;;;16.51;52.66;101823.03;2044687;29;20388;-68
2023/03/20 05:06:10;;;;;;;;;;;;;;;16.50;52.72;101814.03;2045079;28;20075;-68
2023/03/20 05:07:16;;;;;;;;;;;;;;;16.51;52.43;101820.28;2041856;29;20039;-68
2023/03/20 05:08:31;;;;;;;;;;;;;;;16.50;52.51;101822.22;2040423;29;19927;-67
2023/03/20 05:09:34;;;;;;;;;;;;;;;16.50;52.51;101814.03;2045688;29;19933;-68
2023/03/20 05:10:39;;;;;;;;;;;;;;;16.51;52.41;101817.56;2038195;29;19981;-68
2023/03/20 05:11:59;;;;;;;;;;;;;;;16.51;52.45;101815.59;2038179;28;20449;-67
2023/03/20 05:13:16;;;;;;;;;;;;;;;16.51;52.43;101814.84;2041952;29;19993;-72
2023/03/20 05:14:40;;;;;;;;;;;;;;;16.51;52.34;101814.84;2036046;29;20017;-71
2023/03/20 05:16:03;;;;;;;;;;;;;;;16.50;52.52;101807.78;2041643;29;20384;-71
2023/03/20 05:17:26;;;;;;;;;;;;;;;16.50;52.81;101805.88;2026268;29;19927;-72
2023/03/20 05:18:39;;;;;;;;;;;;;;;16.51;52.69;101814.84;2053434;28;19992;-72
2023/03/20 05:19:50;;;;;;;;;;;;;;;16.51;52.47;101812.13;2041210;29;20468;-72
2023/03/20 05:21:08;;;;;;;;;;;;;;;16.50;52.69;101808.59;2042708;28;20500;-72
2023/03/20 05:22:20;;;;;;;;;;;;;;;16.50;52.81;101805.06;2042348;28;19926;-72
2023/03/20 05:23:52;;;;;;;;;;;;;;;16.51;52.83;101807.44;2041591;28;19930;-72
2023/03/20 05:25:08;;;;;;;;;;;;;;;16.51;52.67;101812.13;2050949;28;19945;-72
2023/03/20 05:26:24;;;;;;;;;;;;;;;16.50;52.79;101808.59;2045306;28;20491;-73
2023/03/20 05:27:47;;;;;;;;;;;;;;;16.51;52.53;101806.66;2043220;28;19949;-72
2023/03/20 05:29:11;;;;;;;;;;;;;;;16.51;52.44;101817.56;2049713;28;19978;-72
2023/03/20 05:30:45;;;;;;;;;;;;;;;16.50;52.53;101821.41;2036208;29;20401;-72
2023/03/20 05:32:07;;;;;;;;;;;;;;;16.51;52.70;101823.03;2043258;28;19930;-72
2023/03/20 05:33:15;;;;;;;;;;;;;;;16.51;52.56;101817.56;2047104;29;19961;-72
2023/03/20 05:34:41;;;;;;;;;;;;;;;16.51;52.67;101823.78;2025115;29;20014;-72
2023/03/20 05:36:13;;;;;;;;;;;;;;;16.50;52.42;101824.16;2048139;28;20388;-72
2023/03/20 05:37:31;;;;;;;;;;;;;;;16.51;52.37;101823.03;2043442;29;19927;-72
2023/03/20 05:38:40;;;;;;;;;;;;;;;16.51;52.55;101823.78;2039380;29;19927;-72
2023/03/20 05:39:54;;;;;;;;;;;;;;;16.51;52.58;101828.47;2036171;29;19927;-72
2023/03/20 05:41:22;;;;;;;;;;;;;;;16.51;52.43;101833.91;2035295;28;20313;-72
2023/03/20 05:42:37;;;;;;;;;;;;;;;16.50;52.42;101835.84;2048844;28;19993;-72
2023/03/20 05:44:06;;;;;;;;;;;;;;;16.51;52.41;101831.19;2042189;28;19927;-72